Cagliari, Italy

1:51 AM CEST on October 25, 2014 (GMT +0200)
Tuvixeddu | Change Station
CLOSE
Current Station
Personal Weather Station
Location: Cagliari, SARDEGNA
Elevation: 89 ft
Nearby Weather Stations

Elev 89 ft 39.23 °N, 9.10 °E | Updated 10 minutes ago

Clear
Clear
59.6 °F
Feels Like 59.6 °F
N
4.0
Wind Variable Wind from NW
Gusts 4.0 mph

Today
High -- | Low -- °F
--% Chance of Precip.
Yesterday
High -- | Low -- °F
Precip. -- in
7:43 AM 6:31 PM
New Moon, 1% visible
Pressure 30.01 in
Visibility -9999.0 miles
Clouds
Dew Point 53 °F
Humidity 80%
Rainfall 0.00 in
Snow Depth Not available.
UV 0.0 out of 12
Pollen Not available.
Air Quality Not available.
Flu Activity Not available.
METAR LIEE 242320Z 31005KT CAVOK 14/13 Q1016

More Conditions Fewer Conditions

Pressure 30.01 in
Visibility -9999.0 miles
Clouds
Dew Point 53 °F
Humidity 80%
Rainfall 0.00 in
Snow Depth Not available.
UV 0.0 out of 12
Pollen Not available.
Air Quality Not available.
Flu Activity Not available.
METAR LIEE 242320Z 31005KT CAVOK 14/13 Q1016

More Conditions Fewer Conditions

10-Day Weather Forecast

Almanac

Astronomy

Oct. 25, 2014 Rise Set
Actual Time 7:43 AM CEST 6:31 PM CEST
Civil Twilight 7:16 AM CEST 6:58 PM CEST
Nautical Twilight 6:44 AM CEST 7:30 PM CEST
Astronomical Twilight 6:13 AM CEST 8:01 PM CEST
Moon 9:05 AM CEST (10/25) 7:42 PM CEST (10/25)
Length of Visible Light 11h 42m
Length of Day
10h 47m
Tomorrow will be 2m 22s shorter.
New Moon, 1% of the Moon is Illuminated
Oct 24
New Moon
Oct 30
First Quarter
Nov 6
Full
Nov 14
Last Quarter
Nov 22
New

Yesterday's Extremes

Country Highs Country Lows

Community

WunderPhotos

Upload Photos

1,764,713 photos uploaded!

Nearby

Snow Depth

Not available.

Earthquake Activity

City Distance Mag. Time & Date
No recent earthquake activity has been reported nearby.
Minimum magnitude displayed is 2.5.

Coastal Water Temperatures

Place Temperature
No Stations Reporting

Nearby Weather Stations